sensor_id;sensor_type;location;lat;lon;timestamp;temperature;humidity
11511;DHT22;5812;48.864;9.190;2022-09-29T00:01:08;6.40;99.90
11511;DHT22;5812;48.864;9.190;2022-09-29T00:03:34;6.30;99.90
11511;DHT22;5812;48.864;9.190;2022-09-29T00:06:00;6.30;99.90
11511;DHT22;5812;48.864;9.190;2022-09-29T00:08:27;6.30;99.90
11511;DHT22;5812;48.864;9.190;2022-09-29T00:10:53;6.20;99.90
11511;DHT22;5812;48.864;9.190;2022-09-29T00:13:19;6.30;99.90
11511;DHT22;5812;48.864;9.190;2022-09-29T00:15:57;6.20;99.90
11511;DHT22;5812;48.864;9.190;2022-09-29T00:18:23;6.30;99.90
11511;DHT22;5812;48.864;9.190;2022-09-29T00:21:07;6.30;99.90
11511;DHT22;5812;48.864;9.190;2022-09-29T00:23:34;6.30;99.90
11511;DHT22;5812;48.864;9.190;2022-09-29T00:26:02;6.80;99.90
11511;DHT22;5812;48.864;9.190;2022-09-29T00:28:28;6.50;99.90
11511;DHT22;5812;48.864;9.190;2022-09-29T00:30:54;6.50;99.90
11511;DHT22;5812;48.864;9.190;2022-09-29T00:33:19;6.50;99.90
11511;DHT22;5812;48.864;9.190;2022-09-29T00:35:58;6.50;99.90
11511;DHT22;5812;48.864;9.190;2022-09-29T00:38:25;6.50;99.90
11511;DHT22;5812;48.864;9.190;2022-09-29T00:40:50;6.60;99.90
11511;DHT22;5812;48.864;9.190;2022-09-29T00:43:21;6.70;99.90
11511;DHT22;5812;48.864;9.190;2022-09-29T00:48:28;6.60;99.90
11511;DHT22;5812;48.864;9.190;2022-09-29T00:50:56;6.70;99.90
11511;DHT22;5812;48.864;9.190;2022-09-29T00:53:22;6.70;99.90
11511;DHT22;5812;48.864;9.190;2022-09-29T00:56:03;6.70;99.90
11511;DHT22;5812;48.864;9.190;2022-09-29T01:01:04;6.80;99.90
11511;DHT22;5812;48.864;9.190;2022-09-29T01:03:34;6.70;99.90
11511;DHT22;5812;48.864;9.190;2022-09-29T01:06:14;6.80;99.90
11511;DHT22;5812;48.864;9.190;2022-09-29T01:08:42;6.80;99.90
11511;DHT22;5812;48.864;9.190;2022-09-29T01:11:10;6.70;99.90
11511;DHT22;5812;48.864;9.190;2022-09-29T01:13:37;6.70;99.90
11511;DHT22;5812;48.864;9.190;2022-09-29T01:16:03;6.70;99.90
11511;DHT22;5812;48.864;9.190;2022-09-29T01:18:30;6.60;99.90
11511;DHT22;5812;48.864;9.190;2022-09-29T01:21:11;6.60;99.90
11511;DHT22;5812;48.864;9.190;2022-09-29T01:24:00;6.60;99.90
11511;DHT22;5812;48.864;9.190;2022-09-29T01:26:57;6.60;99.90
11511;DHT22;5812;48.864;9.190;2022-09-29T01:43:08;6.80;99.90
11511;DHT22;5812;48.864;9.190;2022-09-29T01:45:39;6.80;99.90
11511;DHT22;5812;48.864;9.190;2022-09-29T01:48:28;6.80;99.90
11511;DHT22;5812;48.864;9.190;2022-09-29T01:50:59;6.90;99.90
11511;DHT22;5812;48.864;9.190;2022-09-29T01:53:32;7.00;99.90
11511;DHT22;5812;48.864;9.190;2022-09-29T01:56:02;7.00;99.90
11511;DHT22;5812;48.864;9.190;2022-09-29T01:58:40;7.10;99.90
11511;DHT22;5812;48.864;9.190;2022-09-29T02:01:11;7.10;99.90
11511;DHT22;5812;48.864;9.190;2022-09-29T02:03:45;7.10;99.90
11511;DHT22;5812;48.864;9.190;2022-09-29T02:06:17;7.10;99.90
11511;DHT22;5812;48.864;9.190;2022-09-29T02:08:50;7.10;99.90
11511;DHT22;5812;48.864;9.190;2022-09-29T02:11:17;7.20;99.90
11511;DHT22;5812;48.864;9.190;2022-09-29T02:13:58;7.30;99.90
11511;DHT22;5812;48.864;9.190;2022-09-29T02:16:30;7.30;99.90
11511;DHT22;5812;48.864;9.190;2022-09-29T02:19:02;7.40;99.90
11511;DHT22;5812;48.864;9.190;2022-09-29T02:21:29;7.40;99.90
11511;DHT22;5812;48.864;9.190;2022-09-29T02:23:55;7.40;99.90
11511;DHT22;5812;48.864;9.190;2022-09-29T02:26:23;7.50;99.90
11511;DHT22;5812;48.864;9.190;2022-09-29T02:28:50;7.40;99.90
11511;DHT22;5812;48.864;9.190;2022-09-29T02:31:17;7.50;99.90
11511;DHT22;5812;48.864;9.190;2022-09-29T02:33:43;7.50;99.90
11511;DHT22;5812;48.864;9.190;2022-09-29T02:42:00;7.70;99.90
11511;DHT22;5812;48.864;9.190;2022-09-29T02:44:51;7.80;99.90
11511;DHT22;5812;48.864;9.190;2022-09-29T02:50:04;7.90;99.90
11511;DHT22;5812;48.864;9.190;2022-09-29T02:52:52;7.90;99.90
11511;DHT22;5812;48.864;9.190;2022-09-29T02:55:27;8.00;99.90
11511;DHT22;5812;48.864;9.190;2022-09-29T02:58:04;8.00;99.90
11511;DHT22;5812;48.864;9.190;2022-09-29T03:00:32;8.10;99.90
11511;DHT22;5812;48.864;9.190;2022-09-29T03:02:58;8.20;99.90
11511;DHT22;5812;48.864;9.190;2022-09-29T03:05:24;8.40;99.90
11511;DHT22;5812;48.864;9.190;2022-09-29T03:07:50;8.30;99.90
11511;DHT22;5812;48.864;9.190;2022-09-29T03:10:16;8.20;99.90
11511;DHT22;5812;48.864;9.190;2022-09-29T03:12:42;8.20;99.90
11511;DHT22;5812;48.864;9.190;2022-09-29T03:15:08;8.10;99.90
11511;DHT22;5812;48.864;9.190;2022-09-29T03:17:36;8.10;99.90
11511;DHT22;5812;48.864;9.190;2022-09-29T03:20:03;8.10;99.90
11511;DHT22;5812;48.864;9.190;2022-09-29T03:22:29;8.20;99.90
11511;DHT22;5812;48.864;9.190;2022-09-29T03:24:54;8.20;99.90
11511;DHT22;5812;48.864;9.190;2022-09-29T03:27:20;8.20;99.90
11511;DHT22;5812;48.864;9.190;2022-09-29T03:29:46;8.20;99.90
11511;DHT22;5812;48.864;9.190;2022-09-29T03:32:11;8.20;99.90
11511;DHT22;5812;48.864;9.190;2022-09-29T03:34:37;8.30;99.90
11511;DHT22;5812;48.864;9.190;2022-09-29T03:37:03;8.20;99.90
11511;DHT22;5812;48.864;9.190;2022-09-29T03:39:29;8.10;99.90
11511;DHT22;5812;48.864;9.190;2022-09-29T03:41:54;8.10;99.90
11511;DHT22;5812;48.864;9.190;2022-09-29T03:44:20;8.10;99.90
11511;DHT22;5812;48.864;9.190;2022-09-29T03:46:46;8.00;99.90
11511;DHT22;5812;48.864;9.190;2022-09-29T03:49:12;8.00;99.90
11511;DHT22;5812;48.864;9.190;2022-09-29T03:51:39;8.00;99.90
11511;DHT22;5812;48.864;9.190;2022-09-29T03:54:05;7.90;99.90
11511;DHT22;5812;48.864;9.190;2022-09-29T03:56:31;7.80;99.90
11511;DHT22;5812;48.864;9.190;2022-09-29T03:58:57;7.70;99.90
11511;DHT22;5812;48.864;9.190;2022-09-29T04:01:22;7.70;99.90
11511;DHT22;5812;48.864;9.190;2022-09-29T04:03:48;7.60;99.90
11511;DHT22;5812;48.864;9.190;2022-09-29T04:06:13;7.50;99.90
11511;DHT22;5812;48.864;9.190;2022-09-29T04:08:39;7.50;99.90
11511;DHT22;5812;48.864;9.190;2022-09-29T04:11:05;7.50;99.90
11511;DHT22;5812;48.864;9.190;2022-09-29T04:13:31;7.40;99.90
11511;DHT22;5812;48.864;9.190;2022-09-29T04:16:04;7.30;99.90
11511;DHT22;5812;48.864;9.190;2022-09-29T04:18:30;7.50;99.90
11511;DHT22;5812;48.864;9.190;2022-09-29T04:20:57;7.50;99.90
11511;DHT22;5812;48.864;9.190;2022-09-29T04:23:26;7.50;99.90
11511;DHT22;5812;48.864;9.190;2022-09-29T04:25:52;7.20;99.90
11511;DHT22;5812;48.864;9.190;2022-09-29T04:28:17;7.10;99.90
11511;DHT22;5812;48.864;9.190;2022-09-29T04:30:43;7.00;99.90
11511;DHT22;5812;48.864;9.190;2022-09-29T04:33:09;7.00;99.90
11511;DHT22;5812;48.864;9.190;2022-09-29T04:35:34;6.90;99.90
11511;DHT22;5812;48.864;9.190;2022-09-29T04:38:00;6.80;99.90
11511;DHT22;5812;48.864;9.190;2022-09-29T04:40:25;6.70;99.90
11511;DHT22;5812;48.864;9.190;2022-09-29T04:42:51;6.60;99.90
11511;DHT22;5812;48.864;9.190;2022-09-29T04:45:17;6.60;99.90
11511;DHT22;5812;48.864;9.190;2022-09-29T04:47:42;6.70;99.90
11511;DHT22;5812;48.864;9.190;2022-09-29T04:50:08;6.60;99.90
11511;DHT22;5812;48.864;9.190;2022-09-29T04:52:34;6.70;99.90
11511;DHT22;5812;48.864;9.190;2022-09-29T04:55:01;6.60;99.90
11511;DHT22;5812;48.864;9.190;2022-09-29T04:57:26;6.60;99.90
11511;DHT22;5812;48.864;9.190;2022-09-29T04:59:52;6.50;99.90
11511;DHT22;5812;48.864;9.190;2022-09-29T05:02:18;6.50;99.90
11511;DHT22;5812;48.864;9.190;2022-09-29T05:04:44;6.60;99.90
11511;DHT22;5812;48.864;9.190;2022-09-29T05:07:12;6.60;99.90
11511;DHT22;5812;48.864;9.190;2022-09-29T05:09:37;6.60;99.90
11511;DHT22;5812;48.864;9.190;2022-09-29T05:12:03;6.60;99.90
11511;DHT22;5812;48.864;9.190;2022-09-29T05:14:28;6.50;99.90
11511;DHT22;5812;48.864;9.190;2022-09-29T05:16:55;6.60;99.90
11511;DHT22;5812;48.864;9.190;2022-09-29T05:19:20;6.70;99.90
11511;DHT22;5812;48.864;9.190;2022-09-29T05:21:46;6.70;99.90
11511;DHT22;5812;48.864;9.190;2022-09-29T05:24:12;6.70;99.90
11511;DHT22;5812;48.864;9.190;2022-09-29T05:26:38;6.70;99.90
11511;DHT22;5812;48.864;9.190;2022-09-29T05:29:03;6.70;99.90
11511;DHT22;5812;48.864;9.190;2022-09-29T05:31:29;6.70;99.90
11511;DHT22;5812;48.864;9.190;2022-09-29T05:33:55;6.80;99.90
11511;DHT22;5812;48.864;9.190;2022-09-29T05:36:22;6.80;99.90
11511;DHT22;5812;48.864;9.190;2022-09-29T05:38:47;6.90;99.90
11511;DHT22;5812;48.864;9.190;2022-09-29T05:41:13;6.80;99.90
11511;DHT22;5812;48.864;9.190;2022-09-29T05:43:47;6.80;99.90
11511;DHT22;5812;48.864;9.190;2022-09-29T05:46:13;6.80;99.90
11511;DHT22;5812;48.864;9.190;2022-09-29T05:48:40;6.70;99.90
11511;DHT22;5812;48.864;9.190;2022-09-29T05:51:09;6.70;99.90
11511;DHT22;5812;48.864;9.190;2022-09-29T05:53:35;6.70;99.90
11511;DHT22;5812;48.864;9.190;2022-09-29T05:56:15;6.70;99.90
11511;DHT22;5812;48.864;9.190;2022-09-29T05:58:41;6.80;99.90
11511;DHT22;5812;48.864;9.190;2022-09-29T06:01:08;6.80;99.90
11511;DHT22;5812;48.864;9.190;2022-09-29T06:03:35;6.80;99.90
11511;DHT22;5812;48.864;9.190;2022-09-29T06:06:22;6.90;99.90
11511;DHT22;5812;48.864;9.190;2022-09-29T06:08:48;6.90;99.90
11511;DHT22;5812;48.864;9.190;2022-09-29T06:11:18;7.00;99.90
11511;DHT22;5812;48.864;9.190;2022-09-29T06:13:47;7.00;99.90
11511;DHT22;5812;48.864;9.190;2022-09-29T06:16:14;7.10;99.90
11511;DHT22;5812;48.864;9.190;2022-09-29T06:18:40;7.20;99.90
11511;DHT22;5812;48.864;9.190;2022-09-29T06:21:11;7.30;99.90
11511;DHT22;5812;48.864;9.190;2022-09-29T06:23:38;7.50;99.90
11511;DHT22;5812;48.864;9.190;2022-09-29T06:26:07;7.70;99.90
11511;DHT22;5812;48.864;9.190;2022-09-29T06:28:33;7.90;99.90
11511;DHT22;5812;48.864;9.190;2022-09-29T06:31:00;8.10;99.90
11511;DHT22;5812;48.864;9.190;2022-09-29T06:33:27;8.40;99.90
11511;DHT22;5812;48.864;9.190;2022-09-29T06:35:52;8.30;99.90
11511;DHT22;5812;48.864;9.190;2022-09-29T06:38:36;8.20;99.90
11511;DHT22;5812;48.864;9.190;2022-09-29T06:41:02;8.30;99.90
11511;DHT22;5812;48.864;9.190;2022-09-29T06:43:28;8.50;99.90
11511;DHT22;5812;48.864;9.190;2022-09-29T06:45:53;8.60;99.90
11511;DHT22;5812;48.864;9.190;2022-09-29T06:48:19;8.40;99.90
11511;DHT22;5812;48.864;9.190;2022-09-29T06:50:44;8.50;99.90
11511;DHT22;5812;48.864;9.190;2022-09-29T06:53:10;8.60;99.90
11511;DHT22;5812;48.864;9.190;2022-09-29T06:55:36;8.60;99.90
11511;DHT22;5812;48.864;9.190;2022-09-29T06:58:01;8.70;99.90
11511;DHT22;5812;48.864;9.190;2022-09-29T07:00:27;9.10;99.90
11511;DHT22;5812;48.864;9.190;2022-09-29T07:02:52;8.90;99.90
11511;DHT22;5812;48.864;9.190;2022-09-29T07:05:19;9.20;99.90
11511;DHT22;5812;48.864;9.190;2022-09-29T07:07:47;9.20;99.90
11511;DHT22;5812;48.864;9.190;2022-09-29T07:10:13;9.20;99.90
11511;DHT22;5812;48.864;9.190;2022-09-29T07:12:40;9.50;99.90
11511;DHT22;5812;48.864;9.190;2022-09-29T07:15:06;9.50;98.80
11511;DHT22;5812;48.864;9.190;2022-09-29T07:17:31;9.60;97.20
11511;DHT22;5812;48.864;9.190;2022-09-29T07:19:57;9.80;99.90
11511;DHT22;5812;48.864;9.190;2022-09-29T07:22:23;9.80;90.70
11511;DHT22;5812;48.864;9.190;2022-09-29T07:24:49;9.70;96.40
11511;DHT22;5812;48.864;9.190;2022-09-29T07:27:15;9.90;99.90
11511;DHT22;5812;48.864;9.190;2022-09-29T07:29:45;9.90;99.90
11511;DHT22;5812;48.864;9.190;2022-09-29T07:32:10;10.20;99.90
11511;DHT22;5812;48.864;9.190;2022-09-29T07:34:36;10.20;93.50
11511;DHT22;5812;48.864;9.190;2022-09-29T07:37:02;10.10;42.50
11511;DHT22;5812;48.864;9.190;2022-09-29T07:39:27;9.80;1.00
11511;DHT22;5812;48.864;9.190;2022-09-29T07:41:53;9.80;61.10
11511;DHT22;5812;48.864;9.190;2022-09-29T07:44:19;9.90;67.80
11511;DHT22;5812;48.864;9.190;2022-09-29T07:46:47;10.00;75.40
11511;DHT22;5812;48.864;9.190;2022-09-29T07:49:12;10.10;17.50
11511;DHT22;5812;48.864;9.190;2022-09-29T07:51:38;10.40;1.00
11511;DHT22;5812;48.864;9.190;2022-09-29T07:54:04;10.50;1.00
11511;DHT22;5812;48.864;9.190;2022-09-29T07:56:30;11.10;46.90
11511;DHT22;5812;48.864;9.190;2022-09-29T07:58:57;11.40;39.90
11511;DHT22;5812;48.864;9.190;2022-09-29T08:01:22;11.50;1.00
11511;DHT22;5812;48.864;9.190;2022-09-29T08:03:53;11.40;1.00
11511;DHT22;5812;48.864;9.190;2022-09-29T08:06:20;11.40;99.90
11511;DHT22;5812;48.864;9.190;2022-09-29T08:08:47;11.30;1.00
11511;DHT22;5812;48.864;9.190;2022-09-29T08:11:15;11.40;1.00
11511;DHT22;5812;48.864;9.190;2022-09-29T08:13:41;11.20;1.00
11511;DHT22;5812;48.864;9.190;2022-09-29T08:16:10;11.30;1.00
11511;DHT22;5812;48.864;9.190;2022-09-29T08:18:36;11.60;1.00
11511;DHT22;5812;48.864;9.190;2022-09-29T08:21:02;11.70;1.00
11511;DHT22;5812;48.864;9.190;2022-09-29T08:23:28;11.90;1.00
11511;DHT22;5812;48.864;9.190;2022-09-29T08:26:06;12.10;1.00
11511;DHT22;5812;48.864;9.190;2022-09-29T08:28:34;12.50;1.00
11511;DHT22;5812;48.864;9.190;2022-09-29T08:31:11;12.60;99.90
11511;DHT22;5812;48.864;9.190;2022-09-29T08:33:37;12.90;1.00
11511;DHT22;5812;48.864;9.190;2022-09-29T08:36:04;13.00;99.90
11511;DHT22;5812;48.864;9.190;2022-09-29T08:38:42;13.10;99.90
11511;DHT22;5812;48.864;9.190;2022-09-29T08:41:33;13.30;99.90
11511;DHT22;5812;48.864;9.190;2022-09-29T08:47:01;13.60;99.90
11511;DHT22;5812;48.864;9.190;2022-09-29T08:49:55;13.50;65.10
11511;DHT22;5812;48.864;9.190;2022-09-29T08:52:24;13.90;1.00
11511;DHT22;5812;48.864;9.190;2022-09-29T08:54:57;14.00;1.00
11511;DHT22;5812;48.864;9.190;2022-09-29T08:57:24;14.20;1.00
11511;DHT22;5812;48.864;9.190;2022-09-29T08:59:55;14.30;1.00
11511;DHT22;5812;48.864;9.190;2022-09-29T09:05:17;14.20;1.00
11511;DHT22;5812;48.864;9.190;2022-09-29T09:13:41;14.60;99.90
11511;DHT22;5812;48.864;9.190;2022-09-29T09:24:46;16.50;99.90
11511;DHT22;5812;48.864;9.190;2022-09-29T09:27:15;16.90;99.90
11511;DHT22;5812;48.864;9.190;2022-09-29T09:29:45;16.70;99.90
11511;DHT22;5812;48.864;9.190;2022-09-29T09:32:16;16.70;99.90
11511;DHT22;5812;48.864;9.190;2022-09-29T09:34:54;17.20;99.90
11511;DHT22;5812;48.864;9.190;2022-09-29T09:37:36;17.10;99.90
11511;DHT22;5812;48.864;9.190;2022-09-29T09:40:15;16.60;99.90
11511;DHT22;5812;48.864;9.190;2022-09-29T09:43:04;16.80;99.90
11511;DHT22;5812;48.864;9.190;2022-09-29T09:45:44;16.40;99.90
11511;DHT22;5812;48.864;9.190;2022-09-29T09:50:42;16.50;99.90
11511;DHT22;5812;48.864;9.190;2022-09-29T09:53:37;16.20;99.90
11511;DHT22;5812;48.864;9.190;2022-09-29T10:02:27;16.20;99.90
11511;DHT22;5812;48.864;9.190;2022-09-29T10:04:54;16.10;99.90
11511;DHT22;5812;48.864;9.190;2022-09-29T10:07:23;16.10;99.90
11511;DHT22;5812;48.864;9.190;2022-09-29T10:09:49;16.30;99.90
11511;DHT22;5812;48.864;9.190;2022-09-29T10:12:20;16.30;99.90
11511;DHT22;5812;48.864;9.190;2022-09-29T10:17:22;16.60;99.90
11511;DHT22;5812;48.864;9.190;2022-09-29T10:22:18;16.90;99.90
11511;DHT22;5812;48.864;9.190;2022-09-29T10:24:44;16.30;99.90
11511;DHT22;5812;48.864;9.190;2022-09-29T10:27:10;16.50;99.90
11511;DHT22;5812;48.864;9.190;2022-09-29T10:29:41;16.70;99.90
11511;DHT22;5812;48.864;9.190;2022-09-29T10:35:07;16.80;99.90
11511;DHT22;5812;48.864;9.190;2022-09-29T10:37:36;16.90;99.90
11511;DHT22;5812;48.864;9.190;2022-09-29T10:42:37;17.50;99.90
11511;DHT22;5812;48.864;9.190;2022-09-29T10:50:33;20.00;99.90
11511;DHT22;5812;48.864;9.190;2022-09-29T10:55:54;21.00;90.80
11511;DHT22;5812;48.864;9.190;2022-09-29T11:01:23;20.90;85.90
11511;DHT22;5812;48.864;9.190;2022-09-29T11:06:35;22.00;83.50
11511;DHT22;5812;48.864;9.190;2022-09-29T11:09:05;22.80;83.30
11511;DHT22;5812;48.864;9.190;2022-09-29T11:11:38;23.30;86.40
11511;DHT22;5812;48.864;9.190;2022-09-29T11:14:05;23.90;82.60
11511;DHT22;5812;48.864;9.190;2022-09-29T11:16:35;24.70;87.40
11511;DHT22;5812;48.864;9.190;2022-09-29T11:19:12;24.90;96.40
11511;DHT22;5812;48.864;9.190;2022-09-29T11:30:25;23.70;79.00
11511;DHT22;5812;48.864;9.190;2022-09-29T11:43:57;21.30;71.40
11511;DHT22;5812;48.864;9.190;2022-09-29T11:46:43;20.80;83.50
11511;DHT22;5812;48.864;9.190;2022-09-29T11:52:20;20.10;77.20
11511;DHT22;5812;48.864;9.190;2022-09-29T12:00:19;19.80;80.40
11511;DHT22;5812;48.864;9.190;2022-09-29T12:08:21;18.90;80.10
11511;DHT22;5812;48.864;9.190;2022-09-29T12:16:15;17.80;82.40
11511;DHT22;5812;48.864;9.190;2022-09-29T12:18:55;17.80;83.10
11511;DHT22;5812;48.864;9.190;2022-09-29T12:21:47;17.80;85.00
11511;DHT22;5812;48.864;9.190;2022-09-29T12:24:23;18.20;88.20
11511;DHT22;5812;48.864;9.190;2022-09-29T12:26:50;17.30;82.10
11511;DHT22;5812;48.864;9.190;2022-09-29T12:29:49;17.10;87.00
11511;DHT22;5812;48.864;9.190;2022-09-29T12:32:30;16.80;83.60
11511;DHT22;5812;48.864;9.190;2022-09-29T12:35:02;17.00;85.40
11511;DHT22;5812;48.864;9.190;2022-09-29T12:37:36;16.50;85.30
11511;DHT22;5812;48.864;9.190;2022-09-29T12:43:08;17.00;85.50
11511;DHT22;5812;48.864;9.190;2022-09-29T12:46:09;17.60;89.70
11511;DHT22;5812;48.864;9.190;2022-09-29T12:51:31;18.00;83.90
11511;DHT22;5812;48.864;9.190;2022-09-29T12:56:51;17.70;89.00
11511;DHT22;5812;48.864;9.190;2022-09-29T12:59:38;17.50;90.70
11511;DHT22;5812;48.864;9.190;2022-09-29T13:14:17;17.40;90.00
11511;DHT22;5812;48.864;9.190;2022-09-29T13:28:37;15.70;95.30
11511;DHT22;5812;48.864;9.190;2022-09-29T13:31:07;15.60;99.50
11511;DHT22;5812;48.864;9.190;2022-09-29T13:33:34;15.60;99.90
11511;DHT22;5812;48.864;9.190;2022-09-29T13:36:00;15.50;99.90
11511;DHT22;5812;48.864;9.190;2022-09-29T13:38:29;15.50;97.40
11511;DHT22;5812;48.864;9.190;2022-09-29T13:49:13;15.40;99.80
11511;DHT22;5812;48.864;9.190;2022-09-29T13:59:38;15.20;99.90
11511;DHT22;5812;48.864;9.190;2022-09-29T14:04:53;15.30;99.90
11511;DHT22;5812;48.864;9.190;2022-09-29T14:07:45;15.30;99.90
11511;DHT22;5812;48.864;9.190;2022-09-29T14:13:00;15.20;99.90
11511;DHT22;5812;48.864;9.190;2022-09-29T14:15:42;15.10;99.90
11511;DHT22;5812;48.864;9.190;2022-09-29T14:18:36;15.00;99.90
11511;DHT22;5812;48.864;9.190;2022-09-29T14:21:05;15.00;99.90
11511;DHT22;5812;48.864;9.190;2022-09-29T14:23:49;14.70;99.90
11511;DHT22;5812;48.864;9.190;2022-09-29T14:26:42;14.80;99.90
11511;DHT22;5812;48.864;9.190;2022-09-29T14:29:22;14.80;99.90
11511;DHT22;5812;48.864;9.190;2022-09-29T14:31:51;14.80;99.90
11511;DHT22;5812;48.864;9.190;2022-09-29T14:34:20;14.80;99.90
11511;DHT22;5812;48.864;9.190;2022-09-29T14:36:48;14.90;99.90
11511;DHT22;5812;48.864;9.190;2022-09-29T14:39:15;14.70;99.90
11511;DHT22;5812;48.864;9.190;2022-09-29T14:41:43;14.80;99.90
11511;DHT22;5812;48.864;9.190;2022-09-29T14:44:16;14.60;99.90
11511;DHT22;5812;48.864;9.190;2022-09-29T14:50:00;14.50;99.90
11511;DHT22;5812;48.864;9.190;2022-09-29T14:58:18;14.20;99.90
11511;DHT22;5812;48.864;9.190;2022-09-29T15:03:47;14.20;99.90
11511;DHT22;5812;48.864;9.190;2022-09-29T15:06:18;14.20;99.90
11511;DHT22;5812;48.864;9.190;2022-09-29T15:11:30;14.30;99.90
11511;DHT22;5812;48.864;9.190;2022-09-29T15:13:57;14.50;99.90
11511;DHT22;5812;48.864;9.190;2022-09-29T15:16:31;14.50;99.90
11511;DHT22;5812;48.864;9.190;2022-09-29T15:19:19;14.70;99.90
11511;DHT22;5812;48.864;9.190;2022-09-29T15:24:41;14.50;99.90
11511;DHT22;5812;48.864;9.190;2022-09-29T15:27:13;14.30;99.90
11511;DHT22;5812;48.864;9.190;2022-09-29T15:29:39;14.30;99.90
11511;DHT22;5812;48.864;9.190;2022-09-29T15:32:20;14.20;99.90
11511;DHT22;5812;48.864;9.190;2022-09-29T15:34:47;14.20;99.90
11511;DHT22;5812;48.864;9.190;2022-09-29T15:37:14;14.00;99.90
11511;DHT22;5812;48.864;9.190;2022-09-29T15:39:40;13.90;99.90
11511;DHT22;5812;48.864;9.190;2022-09-29T15:42:13;14.00;99.90
11511;DHT22;5812;48.864;9.190;2022-09-29T15:44:45;14.00;99.90
11511;DHT22;5812;48.864;9.190;2022-09-29T15:47:20;14.00;99.90
11511;DHT22;5812;48.864;9.190;2022-09-29T15:49:51;14.00;99.90
11511;DHT22;5812;48.864;9.190;2022-09-29T15:52:18;14.00;99.90
11511;DHT22;5812;48.864;9.190;2022-09-29T15:54:47;14.10;99.90
11511;DHT22;5812;48.864;9.190;2022-09-29T15:57:39;14.10;99.90
11511;DHT22;5812;48.864;9.190;2022-09-29T16:03:13;14.30;99.90
11511;DHT22;5812;48.864;9.190;2022-09-29T16:05:42;14.10;99.90
11511;DHT22;5812;48.864;9.190;2022-09-29T16:08:24;14.00;99.90
11511;DHT22;5812;48.864;9.190;2022-09-29T16:10:56;14.00;99.90
11511;DHT22;5812;48.864;9.190;2022-09-29T16:13:27;13.80;99.90
11511;DHT22;5812;48.864;9.190;2022-09-29T16:15:57;13.80;99.90
11511;DHT22;5812;48.864;9.190;2022-09-29T16:18:29;13.80;99.90
11511;DHT22;5812;48.864;9.190;2022-09-29T16:20:56;13.60;99.90
11511;DHT22;5812;48.864;9.190;2022-09-29T16:23:28;13.60;99.90
11511;DHT22;5812;48.864;9.190;2022-09-29T16:26:18;13.40;99.90
11511;DHT22;5812;48.864;9.190;2022-09-29T16:31:33;13.20;99.90
11511;DHT22;5812;48.864;9.190;2022-09-29T16:33:59;13.10;99.90
11511;DHT22;5812;48.864;9.190;2022-09-29T16:38:53;12.90;99.90
11511;DHT22;5812;48.864;9.190;2022-09-29T16:41:37;12.90;99.90
11511;DHT22;5812;48.864;9.190;2022-09-29T16:49:26;12.60;99.90
11511;DHT22;5812;48.864;9.190;2022-09-29T16:51:55;12.50;99.90
11511;DHT22;5812;48.864;9.190;2022-09-29T16:54:28;12.40;99.90
11511;DHT22;5812;48.864;9.190;2022-09-29T16:57:26;12.40;99.90
11511;DHT22;5812;48.864;9.190;2022-09-29T16:59:55;12.20;99.90
11511;DHT22;5812;48.864;9.190;2022-09-29T17:02:22;12.20;99.90
11511;DHT22;5812;48.864;9.190;2022-09-29T17:04:49;12.10;99.90
11511;DHT22;5812;48.864;9.190;2022-09-29T17:07:16;12.00;99.90
11511;DHT22;5812;48.864;9.190;2022-09-29T17:09:53;11.90;99.90
11511;DHT22;5812;48.864;9.190;2022-09-29T17:12:21;11.80;99.90
11511;DHT22;5812;48.864;9.190;2022-09-29T17:14:46;11.80;99.90
11511;DHT22;5812;48.864;9.190;2022-09-29T17:17:20;11.80;99.90
11511;DHT22;5812;48.864;9.190;2022-09-29T17:19:48;11.70;99.90
11511;DHT22;5812;48.864;9.190;2022-09-29T17:22:31;11.60;99.90
11511;DHT22;5812;48.864;9.190;2022-09-29T17:24:59;11.40;99.90
11511;DHT22;5812;48.864;9.190;2022-09-29T17:27:25;11.50;99.90
11511;DHT22;5812;48.864;9.190;2022-09-29T17:30:12;11.50;99.90
11511;DHT22;5812;48.864;9.190;2022-09-29T17:32:42;11.30;99.90
11511;DHT22;5812;48.864;9.190;2022-09-29T17:35:11;11.20;99.90
11511;DHT22;5812;48.864;9.190;2022-09-29T17:37:39;11.10;99.90
11511;DHT22;5812;48.864;9.190;2022-09-29T17:42:59;11.00;99.90
11511;DHT22;5812;48.864;9.190;2022-09-29T17:45:26;11.00;99.90
11511;DHT22;5812;48.864;9.190;2022-09-29T17:47:52;11.00;99.90
11511;DHT22;5812;48.864;9.190;2022-09-29T17:50:26;11.00;99.90
11511;DHT22;5812;48.864;9.190;2022-09-29T17:52:53;10.90;99.90
11511;DHT22;5812;48.864;9.190;2022-09-29T17:55:19;10.80;99.90
11511;DHT22;5812;48.864;9.190;2022-09-29T17:57:47;10.90;99.90
11511;DHT22;5812;48.864;9.190;2022-09-29T18:02:47;10.80;99.90
11511;DHT22;5812;48.864;9.190;2022-09-29T18:05:14;10.80;99.90
11511;DHT22;5812;48.864;9.190;2022-09-29T18:07:40;10.80;99.90
11511;DHT22;5812;48.864;9.190;2022-09-29T18:10:17;10.80;99.90
11511;DHT22;5812;48.864;9.190;2022-09-29T18:12:43;10.80;99.90
11511;DHT22;5812;48.864;9.190;2022-09-29T18:15:09;10.90;99.90
11511;DHT22;5812;48.864;9.190;2022-09-29T18:17:35;10.80;99.90
11511;DHT22;5812;48.864;9.190;2022-09-29T18:20:15;10.80;99.90
11511;DHT22;5812;48.864;9.190;2022-09-29T18:22:41;10.80;99.90
11511;DHT22;5812;48.864;9.190;2022-09-29T18:25:14;10.90;99.90
11511;DHT22;5812;48.864;9.190;2022-09-29T18:27:42;10.90;99.90
11511;DHT22;5812;48.864;9.190;2022-09-29T18:32:52;10.80;99.90
11511;DHT22;5812;48.864;9.190;2022-09-29T18:35:23;10.70;99.90
11511;DHT22;5812;48.864;9.190;2022-09-29T18:37:49;10.60;99.90
11511;DHT22;5812;48.864;9.190;2022-09-29T18:40:17;10.40;99.90
11511;DHT22;5812;48.864;9.190;2022-09-29T18:42:45;10.50;99.90
11511;DHT22;5812;48.864;9.190;2022-09-29T18:45:13;10.40;99.90
11511;DHT22;5812;48.864;9.190;2022-09-29T18:47:41;10.40;99.90
11511;DHT22;5812;48.864;9.190;2022-09-29T18:50:18;10.40;99.90
11511;DHT22;5812;48.864;9.190;2022-09-29T18:52:46;10.40;99.90
11511;DHT22;5812;48.864;9.190;2022-09-29T18:55:22;10.50;99.90
11511;DHT22;5812;48.864;9.190;2022-09-29T18:57:48;10.40;99.90
11511;DHT22;5812;48.864;9.190;2022-09-29T19:00:17;10.30;99.90
11511;DHT22;5812;48.864;9.190;2022-09-29T19:02:44;10.30;99.90
11511;DHT22;5812;48.864;9.190;2022-09-29T19:05:12;10.10;99.90
11511;DHT22;5812;48.864;9.190;2022-09-29T19:07:41;10.10;99.90
11511;DHT22;5812;48.864;9.190;2022-09-29T19:10:08;10.00;99.90
11511;DHT22;5812;48.864;9.190;2022-09-29T19:12:34;9.90;99.90
11511;DHT22;5812;48.864;9.190;2022-09-29T19:15:00;10.00;99.90
11511;DHT22;5812;48.864;9.190;2022-09-29T19:17:26;9.80;99.90
11511;DHT22;5812;48.864;9.190;2022-09-29T19:19:52;9.80;99.90
11511;DHT22;5812;48.864;9.190;2022-09-29T19:22:18;9.70;99.90
11511;DHT22;5812;48.864;9.190;2022-09-29T19:24:44;9.60;99.90
11511;DHT22;5812;48.864;9.190;2022-09-29T19:27:10;9.60;99.90
11511;DHT22;5812;48.864;9.190;2022-09-29T19:29:35;9.60;99.90
11511;DHT22;5812;48.864;9.190;2022-09-29T19:32:01;9.50;99.90
11511;DHT22;5812;48.864;9.190;2022-09-29T19:34:30;9.40;99.90
11511;DHT22;5812;48.864;9.190;2022-09-29T19:36:55;9.40;99.90
11511;DHT22;5812;48.864;9.190;2022-09-29T19:39:21;9.40;99.90
11511;DHT22;5812;48.864;9.190;2022-09-29T19:41:48;9.30;99.90
11511;DHT22;5812;48.864;9.190;2022-09-29T19:44:13;9.40;99.90
11511;DHT22;5812;48.864;9.190;2022-09-29T19:46:39;9.30;99.90